Limerick, New York
Current Conditions -  °F | °C
As of 4:56 AM on Sunday 26 Oct 2014 (Local Time) from KART Reporting Station
Light Rain Light Rain  
Wind Chill: 50°   Ceiling: 4900
Heat Index: 50°   Visibility: 10mi
Dew Point: 38°   Wind: 10mph
Humidity: 63%   Direction: 290°WNW
Pressure: 29.53"   Gusts: 22mph
Location:  44.03°N, 76.04°W
Report Text: KART 260856Z AUTO 29009G19KT 10SM -RA FEW038 OVC049 10/03 A2953 RMK AO2 RAB25 SLP998 P0001 60001 T01000033 53005
Loading
Personal Weather Stations






























Interactive Weather Map
Tropical Storm Tracking
New forecast layout! Learn more

10-Day Weather Forecast

Advertisements
Track Severe Weather on mobile